Time;durP1;ratioP1;P1;durP2;ratioP2;P2;SDS_P1;SDS_P2;PMS_P1;PMS_P2;Temp;Humidity;BMP_temperature;BMP_pressure;BME280_temperature;BME280_humidity;BME280_pressure;Samples;Min_cycle;Max_cycle;Signal;HPM_P1;HPM_P2
2022/08/17 00:02:19;;;;;;;53.58;40.85;;;;;;;;;;5033596;28;20040;-74
2022/08/17 00:04:45;;;;;;;57.60;44.67;;;;;;;;;;5017628;28;20290;-73
2022/08/17 00:07:10;;;;;;;60.33;46.60;;;;;;;;;;5020330;28;20418;-73
2022/08/17 00:09:36;;;;;;;57.55;45.20;;;;;;;;;;5020694;28;20028;-73
2022/08/17 00:12:02;;;;;;;56.30;43.22;;;;;;;;;;5018587;28;20481;-73
2022/08/17 00:14:27;;;;;;;55.63;43.65;;;;;;;;;;5020404;28;20773;-73
2022/08/17 00:16:53;;;;;;;56.55;43.83;;;;;;;;;;5017575;28;20029;-73
2022/08/17 00:19:21;;;;;;;55.45;43.38;;;;;;;;;;5020659;28;20288;-73
2022/08/17 00:21:47;;;;;;;56.75;46.10;;;;;;;;;;5022599;28;20276;-72
2022/08/17 00:24:13;;;;;;;55.72;42.92;;;;;;;;;;5022793;28;20435;-73
2022/08/17 00:26:39;;;;;;;59.08;45.97;;;;;;;;;;5018118;28;20557;-73
2022/08/17 00:29:05;;;;;;;58.35;45.75;;;;;;;;;;5021164;28;20032;-73
2022/08/17 00:31:30;;;;;;;59.50;45.35;;;;;;;;;;5016963;28;20029;-73
2022/08/17 00:33:57;;;;;;;58.40;45.65;;;;;;;;;;5032678;28;20619;-73
2022/08/17 00:36:23;;;;;;;64.10;47.88;;;;;;;;;;5023889;28;20135;-73
2022/08/17 00:38:48;;;;;;;61.67;47.40;;;;;;;;;;5019616;28;20310;-73
2022/08/17 00:41:16;;;;;;;63.05;48.95;;;;;;;;;;5017939;28;20796;-74
2022/08/17 00:43:44;;;;;;;67.80;50.83;;;;;;;;;;5018396;28;20025;-74
2022/08/17 00:46:12;;;;;;;65.38;49.00;;;;;;;;;;5018335;28;20037;-74
2022/08/17 00:48:37;;;;;;;70.78;51.78;;;;;;;;;;5019616;28;20512;-73
2022/08/17 00:51:28;;;;;;;67.78;49.60;;;;;;;;;;5017842;28;20517;-74
2022/08/17 00:53:57;;;;;;;65.32;49.40;;;;;;;;;;5014867;28;20045;-74
2022/08/17 00:56:31;;;;;;;64.57;48.47;;;;;;;;;;5032281;28;20827;-74
2022/08/17 00:58:56;;;;;;;65.80;49.60;;;;;;;;;;5018597;28;20037;-75
2022/08/17 01:01:23;;;;;;;62.58;49.47;;;;;;;;;;5022120;28;20383;-74
2022/08/17 01:03:50;;;;;;;66.25;49.83;;;;;;;;;;5023550;28;21755;-73
2022/08/17 01:06:15;;;;;;;68.40;52.67;;;;;;;;;;5018469;28;20150;-74
2022/08/17 01:08:41;;;;;;;64.60;49.78;;;;;;;;;;5023143;28;20673;-74
2022/08/17 01:11:07;;;;;;;63.50;49.03;;;;;;;;;;5019105;28;20427;-75
2022/08/17 01:13:36;;;;;;;66.47;51.10;;;;;;;;;;5020137;28;20051;-75
2022/08/17 01:16:04;;;;;;;70.97;51.15;;;;;;;;;;5018881;28;20498;-74
2022/08/17 01:18:30;;;;;;;67.43;50.80;;;;;;;;;;5007460;28;20189;-75
2022/08/17 01:20:57;;;;;;;69.10;51.42;;;;;;;;;;5020094;28;20553;-74
2022/08/17 01:23:23;;;;;;;70.72;52.83;;;;;;;;;;5019582;28;20497;-75
2022/08/17 01:25:51;;;;;;;69.57;53.00;;;;;;;;;;5018795;28;20032;-75
2022/08/17 01:28:16;;;;;;;72.50;52.15;;;;;;;;;;5020457;28;20036;-74
2022/08/17 01:30:42;;;;;;;71.90;52.53;;;;;;;;;;5023656;28;20072;-73
2022/08/17 01:33:10;;;;;;;68.30;51.15;;;;;;;;;;5021376;28;20142;-74
2022/08/17 01:35:36;;;;;;;70.95;51.67;;;;;;;;;;5021680;28;21050;-74
2022/08/17 01:38:01;;;;;;;66.00;50.47;;;;;;;;;;5020583;28;20083;-73
2022/08/17 01:40:36;;;;;;;71.13;51.85;;;;;;;;;;5017154;28;20730;-74
2022/08/17 01:43:14;;;;;;;70.68;52.47;;;;;;;;;;5016444;28;20046;-74
2022/08/17 01:45:42;;;;;;;77.15;54.65;;;;;;;;;;5018084;28;20036;-75
2022/08/17 01:48:08;;;;;;;72.45;53.28;;;;;;;;;;5018495;28;20071;-73
2022/08/17 01:50:34;;;;;;;74.03;53.90;;;;;;;;;;5021663;28;20033;-74
2022/08/17 01:53:25;;;;;;;75.80;54.58;;;;;;;;;;5013773;28;20161;-74
2022/08/17 01:55:52;;;;;;;83.32;59.67;;;;;;;;;;5013961;28;21488;-75
2022/08/17 01:58:18;;;;;;;85.10;63.03;;;;;;;;;;5019783;28;20037;-75
2022/08/17 02:00:44;;;;;;;91.40;67.18;;;;;;;;;;5019216;28;20971;-75
2022/08/17 02:03:11;;;;;;;95.45;67.35;;;;;;;;;;5016388;28;20666;-76
2022/08/17 02:05:37;;;;;;;85.90;65.22;;;;;;;;;;5017982;28;20033;-75
2022/08/17 02:08:02;;;;;;;88.40;65.07;;;;;;;;;;5020973;28;21910;-75
2022/08/17 02:10:29;;;;;;;91.03;66.82;;;;;;;;;;5016810;28;20032;-74
2022/08/17 02:12:54;;;;;;;92.05;68.18;;;;;;;;;;5016908;28;20082;-75
2022/08/17 02:15:20;;;;;;;92.55;67.07;;;;;;;;;;5019772;28;20089;-74
2022/08/17 02:17:45;;;;;;;91.40;64.47;;;;;;;;;;5020085;28;20653;-74
2022/08/17 02:20:11;;;;;;;82.90;60.38;;;;;;;;;;5020420;28;20432;-74
2022/08/17 02:22:38;;;;;;;81.13;58.70;;;;;;;;;;5017211;28;20348;-73
2022/08/17 02:25:04;;;;;;;77.20;57.10;;;;;;;;;;5015311;28;20409;-74
2022/08/17 02:27:30;;;;;;;82.70;58.78;;;;;;;;;;5015628;28;20563;-74
2022/08/17 02:29:56;;;;;;;83.97;60.65;;;;;;;;;;5033015;28;20048;-76
2022/08/17 02:32:22;;;;;;;78.13;56.13;;;;;;;;;;5020152;28;20045;-73
2022/08/17 02:34:48;;;;;;;80.28;59.20;;;;;;;;;;5015490;28;20515;-74
2022/08/17 02:37:16;;;;;;;81.10;59.15;;;;;;;;;;5030759;28;20067;-74
2022/08/17 02:39:43;;;;;;;72.20;54.67;;;;;;;;;;5017353;28;20112;-74
2022/08/17 02:42:08;;;;;;;74.20;56.10;;;;;;;;;;5017445;28;20063;-73
2022/08/17 02:44:34;;;;;;;80.13;60.05;;;;;;;;;;5017525;28;20033;-74
2022/08/17 02:46:59;;;;;;;80.90;61.50;;;;;;;;;;5033265;28;20070;-74
2022/08/17 02:49:24;;;;;;;68.40;54.13;;;;;;;;;;5022101;28;20638;-75
2022/08/17 02:51:50;;;;;;;71.07;53.67;;;;;;;;;;5030199;28;20052;-73
2022/08/17 02:54:15;;;;;;;81.80;54.88;;;;;;;;;;5030775;28;21028;-70
2022/08/17 02:56:41;;;;;;;96.63;52.88;;;;;;;;;;5021005;28;20633;-70
2022/08/17 02:59:06;;;;;;;106.47;53.60;;;;;;;;;;5019404;28;20094;-69
2022/08/17 03:01:32;;;;;;;173.07;58.13;;;;;;;;;;5003934;28;20036;-70
2022/08/17 03:03:57;;;;;;;162.95;55.08;;;;;;;;;;5017194;28;20037;-70
2022/08/17 03:06:23;;;;;;;163.50;55.42;;;;;;;;;;5030350;28;20068;-71
2022/08/17 03:08:48;;;;;;;163.13;53.78;;;;;;;;;;5016728;28;20064;-70
2022/08/17 03:11:14;;;;;;;141.10;50.10;;;;;;;;;;5016507;28;20473;-70
2022/08/17 03:13:40;;;;;;;117.18;40.70;;;;;;;;;;5028033;28;20083;-71
2022/08/17 03:16:06;;;;;;;123.15;40.88;;;;;;;;;;5030512;28;20039;-70
2022/08/17 03:18:31;;;;;;;80.25;34.67;;;;;;;;;;5029104;28;20392;-72
2022/08/17 03:20:58;;;;;;;79.95;36.47;;;;;;;;;;5016566;28;20029;-71
2022/08/17 03:23:23;;;;;;;68.63;37.55;;;;;;;;;;5015275;28;20442;-71
2022/08/17 03:25:49;;;;;;;79.63;39.00;;;;;;;;;;5031091;28;20036;-71
2022/08/17 03:28:15;;;;;;;80.57;38.33;;;;;;;;;;5016810;28;20101;-72
2022/08/17 03:30:41;;;;;;;66.35;38.58;;;;;;;;;;5014856;28;20754;-73
2022/08/17 03:33:08;;;;;;;71.30;40.28;;;;;;;;;;5030131;28;20066;-74
2022/08/17 03:35:36;;;;;;;64.28;42.38;;;;;;;;;;5018985;28;20494;-75
2022/08/17 03:38:01;;;;;;;58.60;42.17;;;;;;;;;;5014324;28;20037;-74
2022/08/17 03:40:27;;;;;;;54.30;40.78;;;;;;;;;;5010846;28;20035;-73
2022/08/17 03:42:53;;;;;;;66.15;37.95;;;;;;;;;;5016683;28;20060;-71
2022/08/17 03:56:41;;;;;;;56.80;38.63;;;;;;;;;;5018968;28;20374;-71
2022/08/17 03:56:41;;;;;;;84.25;47.08;;;;;;;;;;5019648;28;20039;-72
2022/08/17 03:59:11;;;;;;;84.65;47.42;;;;;;;;;;5019798;28;20846;-72
2022/08/17 04:01:36;;;;;;;78.63;47.15;;;;;;;;;;5021732;28;20576;-72
2022/08/17 04:04:02;;;;;;;72.78;48.13;;;;;;;;;;5034704;28;20102;-72
2022/08/17 04:06:28;;;;;;;68.93;47.60;;;;;;;;;;5023630;28;20254;-71
2022/08/17 04:08:54;;;;;;;72.40;47.08;;;;;;;;;;5035201;28;20159;-72
2022/08/17 04:11:19;;;;;;;68.32;46.35;;;;;;;;;;5032526;28;20094;-69
2022/08/17 04:13:45;;;;;;;91.32;53.08;;;;;;;;;;5032937;28;20675;-69
2022/08/17 04:16:10;;;;;;;71.32;47.42;;;;;;;;;;5019983;28;21693;-70
2022/08/17 04:18:35;;;;;;;92.38;51.35;;;;;;;;;;5018020;28;20156;-70
2022/08/17 04:21:01;;;;;;;80.57;47.88;;;;;;;;;;5023052;28;20075;-71
2022/08/17 04:23:31;;;;;;;74.05;47.08;;;;;;;;;;5019025;28;20149;-71
2022/08/17 04:25:56;;;;;;;79.05;49.70;;;;;;;;;;5034004;28;20198;-70
2022/08/17 04:28:22;;;;;;;62.15;46.20;;;;;;;;;;5018005;28;20041;-72
2022/08/17 04:30:47;;;;;;;72.57;50.55;;;;;;;;;;5022869;28;20743;-72
2022/08/17 04:33:17;;;;;;;70.22;48.70;;;;;;;;;;5018858;28;20166;-73
2022/08/17 04:35:43;;;;;;;69.60;51.00;;;;;;;;;;5020668;28;20055;-73
2022/08/17 04:38:09;;;;;;;63.53;49.50;;;;;;;;;;5034143;28;20036;-74
2022/08/17 04:43:20;;;;;;;68.45;50.72;;;;;;;;;;5005734;28;20197;-73
2022/08/17 04:45:50;;;;;;;68.75;51.95;;;;;;;;;;5016464;28;20041;-72
2022/08/17 04:48:15;;;;;;;70.78;53.38;;;;;;;;;;5016551;28;20351;-72
2022/08/17 04:50:42;;;;;;;72.65;55.88;;;;;;;;;;5017474;28;20352;-72
2022/08/17 04:53:08;;;;;;;72.65;55.88;;;;;;;;;;5018634;28;20301;-72
2022/08/17 04:55:33;;;;;;;79.03;57.00;;;;;;;;;;5015856;28;20494;-72
2022/08/17 04:57:58;;;;;;;74.75;55.10;;;;;;;;;;5014444;28;20040;-73
2022/08/17 05:00:24;;;;;;;73.32;54.90;;;;;;;;;;5017499;28;20074;-73
2022/08/17 05:02:51;;;;;;;73.35;54.70;;;;;;;;;;5007546;28;20072;-73
2022/08/17 05:05:20;;;;;;;71.00;52.70;;;;;;;;;;5017435;28;20044;-73
2022/08/17 05:07:45;;;;;;;71.80;51.03;;;;;;;;;;5019068;28;20391;-73
2022/08/17 05:10:11;;;;;;;67.72;50.72;;;;;;;;;;5020334;28;20520;-73
2022/08/17 05:12:36;;;;;;;75.88;54.70;;;;;;;;;;5030196;28;20051;-73
2022/08/17 05:15:02;;;;;;;78.32;55.35;;;;;;;;;;5018077;28;20440;-73
2022/08/17 05:17:27;;;;;;;66.28;51.13;;;;;;;;;;5035669;28;20440;-73
2022/08/17 05:19:53;;;;;;;73.70;54.70;;;;;;;;;;5024020;28;20154;-73
2022/08/17 05:22:18;;;;;;;79.60;55.60;;;;;;;;;;5020958;28;20277;-73
2022/08/17 05:24:43;;;;;;;73.20;54.15;;;;;;;;;;5019503;28;20083;-73
2022/08/17 05:27:09;;;;;;;67.60;50.00;;;;;;;;;;5024926;28;20029;-73
2022/08/17 05:29:35;;;;;;;74.63;51.75;;;;;;;;;;5032469;28;20397;-73
2022/08/17 05:32:08;;;;;;;71.00;50.95;;;;;;;;;;5055312;28;20056;-74
2022/08/17 05:34:34;;;;;;;73.75;49.03;;;;;;;;;;5064051;28;20034;-74
2022/08/17 05:37:00;;;;;;;63.35;45.45;;;;;;;;;;5066230;28;20377;-74
2022/08/17 05:39:25;;;;;;;54.95;39.78;;;;;;;;;;5072426;28;20094;-73
2022/08/17 05:41:50;;;;;;;55.97;39.33;;;;;;;;;;5078366;28;20042;-74
2022/08/17 05:44:16;;;;;;;57.42;41.70;;;;;;;;;;5086461;28;20036;-73
2022/08/17 05:46:44;;;;;;;58.47;38.85;;;;;;;;;;5048339;28;20036;-73
2022/08/17 05:49:11;;;;;;;47.17;36.17;;;;;;;;;;5047172;28;20040;-73
2022/08/17 05:51:54;;;;;;;52.55;36.95;;;;;;;;;;5039322;28;20032;-73
2022/08/17 05:54:25;;;;;;;50.70;36.58;;;;;;;;;;5047192;28;20040;-74
2022/08/17 05:57:03;;;;;;;43.55;34.15;;;;;;;;;;5053013;28;20094;-72
2022/08/17 05:59:29;;;;;;;42.53;33.38;;;;;;;;;;5057283;28;20036;-73
2022/08/17 06:02:03;;;;;;;45.33;35.10;;;;;;;;;;5054696;28;20324;-73
2022/08/17 06:04:35;;;;;;;36.28;30.75;;;;;;;;;;5054667;28;20066;-73
2022/08/17 06:07:00;;;;;;;;;;;;;;;;;;5060071;28;20020;-72
2022/08/17 06:09:42;;;;;;;34.60;27.80;;;;;;;;;;5055027;28;19974;-73
2022/08/17 06:12:13;;;;;;;37.58;31.25;;;;;;;;;;5058101;28;20233;-73
2022/08/17 06:15:09;;;;;;;40.25;32.17;;;;;;;;;;5056446;28;20044;-73
2022/08/17 06:17:35;;;;;;;42.13;33.90;;;;;;;;;;4995260;28;20037;-73
2022/08/17 06:20:03;;;;;;;39.47;31.98;;;;;;;;;;5052715;28;20028;-73
2022/08/17 06:22:32;;;;;;;33.67;28.27;;;;;;;;;;5061036;27;20058;-73
2022/08/17 06:25:11;;;;;;;40.03;30.27;;;;;;;;;;5062752;28;20531;-73
2022/08/17 06:27:36;;;;;;;40.30;31.25;;;;;;;;;;5035658;27;20180;-74
2022/08/17 06:30:10;;;;;;;42.83;30.75;;;;;;;;;;5017962;27;20595;-75
2022/08/17 06:32:44;;;;;;;40.03;32.00;;;;;;;;;;5014988;27;20293;-74
2022/08/17 06:35:10;;;;;;;43.63;34.17;;;;;;;;;;5016410;27;20039;-73
2022/08/17 06:37:36;;;;;;;55.30;36.25;;;;;;;;;;4999532;28;20132;-73
2022/08/17 06:40:13;;;;;;;53.28;37.83;;;;;;;;;;5019751;28;20349;-72
2022/08/17 06:42:58;;;;;;;60.50;39.85;;;;;;;;;;4985569;28;20164;-72
2022/08/17 06:45:33;;;;;;;63.17;40.20;;;;;;;;;;4999601;28;20613;-72
2022/08/17 06:48:04;;;;;;;49.35;35.85;;;;;;;;;;5004368;28;20037;-72
2022/08/17 06:50:35;;;;;;;37.25;28.30;;;;;;;;;;5002966;28;20083;-72
2022/08/17 06:53:06;;;;;;;23.80;20.33;;;;;;;;;;5003628;28;20055;-72
2022/08/17 06:55:43;;;;;;;29.15;22.00;;;;;;;;;;5005196;28;20772;-72
2022/08/17 06:58:09;;;;;;;27.05;20.60;;;;;;;;;;5005948;28;20040;-72
2022/08/17 07:00:40;;;;;;;31.92;22.13;;;;;;;;;;5005655;28;20052;-72
2022/08/17 07:03:24;;;;;;;27.27;21.60;;;;;;;;;;5004012;28;21749;-72
2022/08/17 07:05:56;;;;;;;25.80;20.55;;;;;;;;;;5004266;28;20116;-73
2022/08/17 07:08:40;;;;;;;26.05;19.85;;;;;;;;;;5013345;28;20040;-73
2022/08/17 07:11:08;;;;;;;29.40;21.48;;;;;;;;;;5002310;28;20477;-73
2022/08/17 07:13:52;;;;;;;29.35;20.30;;;;;;;;;;5014560;28;22153;-73
2022/08/17 07:16:20;;;;;;;25.58;21.00;;;;;;;;;;4984876;28;20060;-73
2022/08/17 07:18:48;;;;;;;24.73;19.92;;;;;;;;;;5001437;28;20184;-72
2022/08/17 07:21:32;;;;;;;21.75;19.38;;;;;;;;;;4991828;28;20037;-73
2022/08/17 07:24:21;;;;;;;25.25;20.08;;;;;;;;;;5007277;28;20078;-73
2022/08/17 07:26:48;;;;;;;23.50;19.15;;;;;;;;;;4986791;28;20154;-72
2022/08/17 07:29:16;;;;;;;23.15;18.83;;;;;;;;;;5009165;28;20563;-72
2022/08/17 07:31:43;;;;;;;26.58;20.00;;;;;;;;;;5006324;28;20629;-72
2022/08/17 07:34:13;;;;;;;24.55;20.50;;;;;;;;;;5007696;28;20131;-72
2022/08/17 07:36:40;;;;;;;27.92;21.30;;;;;;;;;;5007401;28;20036;-72
2022/08/17 07:39:06;;;;;;;26.30;21.17;;;;;;;;;;5007579;28;20090;-72
2022/08/17 07:41:34;;;;;;;29.30;22.20;;;;;;;;;;5023699;28;20774;-72
2022/08/17 07:43:59;;;;;;;26.80;22.75;;;;;;;;;;5008329;28;20282;-72
2022/08/17 07:49:16;;;;;;;;;;;;;;;;;;5009434;28;20045;-72
2022/08/17 07:51:42;;;;;;;29.50;22.90;;;;;;;;;;5008791;28;20739;-72
2022/08/17 07:54:13;;;;;;;26.90;23.40;;;;;;;;;;5008649;28;20352;-73
2022/08/17 07:56:46;;;;;;;32.10;24.92;;;;;;;;;;5009026;28;20365;-72
2022/08/17 07:59:20;;;;;;;32.25;25.63;;;;;;;;;;5009587;28;20033;-73
2022/08/17 08:01:47;;;;;;;32.75;24.60;;;;;;;;;;5008633;28;20051;-73
2022/08/17 08:04:21;;;;;;;30.27;24.45;;;;;;;;;;5014426;28;20048;-73
2022/08/17 08:06:53;;;;;;;31.25;25.45;;;;;;;;;;5009040;28;20138;-75
2022/08/17 08:09:47;;;;;;;32.22;25.52;;;;;;;;;;5014418;28;20131;-73
2022/08/17 08:12:23;;;;;;;32.67;26.30;;;;;;;;;;4998144;28;21205;-73
2022/08/17 08:14:55;;;;;;;31.73;26.13;;;;;;;;;;5008652;28;20307;-73
2022/08/17 08:17:40;;;;;;;34.92;27.15;;;;;;;;;;5011962;28;20056;-75
2022/08/17 08:20:09;;;;;;;32.63;27.73;;;;;;;;;;5009159;28;20071;-75
2022/08/17 08:22:55;;;;;;;34.70;27.60;;;;;;;;;;4985716;28;20044;-75
2022/08/17 08:25:44;;;;;;;40.58;32.47;;;;;;;;;;4989294;28;20100;-74
2022/08/17 08:28:28;;;;;;;34.38;27.20;;;;;;;;;;4946078;28;20056;-75
2022/08/17 08:31:00;;;;;;;31.65;26.42;;;;;;;;;;4974245;28;20041;-74
2022/08/17 08:33:43;;;;;;;32.08;25.85;;;;;;;;;;4990788;28;20041;-74
2022/08/17 08:36:22;;;;;;;30.80;24.42;;;;;;;;;;4985019;28;20041;-73
2022/08/17 08:39:02;;;;;;;24.60;21.90;;;;;;;;;;4973964;28;20154;-72
2022/08/17 08:41:40;;;;;;;27.65;22.25;;;;;;;;;;4982424;28;20048;-72
2022/08/17 08:44:08;;;;;;;29.42;22.60;;;;;;;;;;4973780;28;20091;-72
2022/08/17 08:46:34;;;;;;;26.45;22.83;;;;;;;;;;4983051;28;20041;-72
2022/08/17 08:49:00;;;;;;;24.75;21.08;;;;;;;;;;4983763;28;20369;-72
2022/08/17 08:51:26;;;;;;;22.83;20.33;;;;;;;;;;4982763;28;20046;-71
2022/08/17 08:54:07;;;;;;;22.50;19.25;;;;;;;;;;4988255;28;20380;-72
2022/08/17 08:56:41;;;;;;;22.48;20.05;;;;;;;;;;5008106;28;20956;-72
2022/08/17 08:59:22;;;;;;;19.75;17.65;;;;;;;;;;5012983;28;20033;-72
2022/08/17 09:01:54;;;;;;;21.35;18.15;;;;;;;;;;5008189;28;20047;-71
2022/08/17 09:04:29;;;;;;;17.83;16.05;;;;;;;;;;5005163;28;20504;-71
2022/08/17 09:07:06;;;;;;;20.95;16.38;;;;;;;;;;5006901;28;20430;-72
2022/08/17 09:09:41;;;;;;;18.92;16.35;;;;;;;;;;5007400;28;20466;-72
2022/08/17 09:12:25;;;;;;;18.75;16.15;;;;;;;;;;5007406;28;20045;-70
2022/08/17 09:15:01;;;;;;;17.65;15.60;;;;;;;;;;5007217;28;20131;-71
2022/08/17 09:17:35;;;;;;;18.52;16.52;;;;;;;;;;5007418;28;20306;-71
2022/08/17 09:20:03;;;;;;;18.17;16.27;;;;;;;;;;5009954;28;20305;-71
2022/08/17 09:22:48;;;;;;;18.70;15.88;;;;;;;;;;5007107;28;20344;-71
2022/08/17 09:25:16;;;;;;;18.13;16.02;;;;;;;;;;5021367;28;20040;-70
2022/08/17 09:27:47;;;;;;;17.17;15.45;;;;;;;;;;5006984;28;20447;-70
2022/08/17 09:30:13;;;;;;;18.80;16.63;;;;;;;;;;5006583;28;20037;-71
2022/08/17 09:32:57;;;;;;;18.75;16.70;;;;;;;;;;5007571;28;20549;-71
2022/08/17 09:35:26;;;;;;;18.00;16.20;;;;;;;;;;5019903;28;20037;-72
2022/08/17 09:37:57;;;;;;;18.85;16.85;;;;;;;;;;5004510;28;20552;-72
2022/08/17 09:40:36;;;;;;;19.55;17.45;;;;;;;;;;5004634;28;20032;-72
2022/08/17 09:43:24;;;;;;;18.30;16.40;;;;;;;;;;5004541;28;20055;-72
2022/08/17 09:45:52;;;;;;;19.70;15.57;;;;;;;;;;5012829;28;20040;-73
2022/08/17 09:48:27;;;;;;;16.83;14.25;;;;;;;;;;5009878;28;20436;-72
2022/08/17 09:50:54;;;;;;;14.98;13.48;;;;;;;;;;5021158;28;20035;-72
2022/08/17 09:53:20;;;;;;;17.10;15.23;;;;;;;;;;5019596;28;20083;-73
2022/08/17 09:56:07;;;;;;;16.67;15.00;;;;;;;;;;5005868;28;20100;-71
2022/08/17 09:58:46;;;;;;;16.40;14.70;;;;;;;;;;5011190;28;20029;-71
2022/08/17 10:01:15;;;;;;;16.45;14.70;;;;;;;;;;5019181;28;20082;-72
2022/08/17 10:03:41;;;;;;;15.90;14.40;;;;;;;;;;5003485;28;20052;-72
2022/08/17 10:06:07;;;;;;;15.18;13.52;;;;;;;;;;5021007;28;20036;-72
2022/08/17 10:08:46;;;;;;;16.20;14.43;;;;;;;;;;5020487;28;20293;-73
2022/08/17 10:11:14;;;;;;;13.90;12.50;;;;;;;;;;5021178;28;20032;-75
2022/08/17 10:13:55;;;;;;;16.45;13.55;;;;;;;;;;5005175;28;20125;-75
2022/08/17 10:16:42;;;;;;;17.08;15.27;;;;;;;;;;5010153;28;20056;-74
2022/08/17 10:19:30;;;;;;;19.88;17.80;;;;;;;;;;5006257;28;20655;-74
2022/08/17 10:27:47;;;;;;;16.52;14.77;;;;;;;;;;5005496;28;20509;-75
2022/08/17 10:30:15;;;;;;;16.92;14.13;;;;;;;;;;4997243;28;20040;-75
2022/08/17 10:32:51;;;;;;;17.10;15.27;;;;;;;;;;5019599;28;20060;-73
2022/08/17 10:35:19;;;;;;;16.17;14.48;;;;;;;;;;5003193;28;20029;-74
2022/08/17 10:37:45;;;;;;;16.25;14.50;;;;;;;;;;5018039;28;20032;-73
2022/08/17 10:40:19;;;;;;;16.38;14.73;;;;;;;;;;5011128;28;20438;-73
2022/08/17 10:42:48;;;;;;;17.35;15.30;;;;;;;;;;5008413;28;20087;-74
2022/08/17 10:45:17;;;;;;;16.85;15.18;;;;;;;;;;5002967;28;20033;-74
2022/08/17 10:47:58;;;;;;;17.35;15.65;;;;;;;;;;5003513;28;20474;-74
2022/08/17 10:50:42;;;;;;;17.20;15.40;;;;;;;;;;5003579;28;20323;-74
2022/08/17 10:53:07;;;;;;;18.88;15.40;;;;;;;;;;5002717;28;20045;-73
2022/08/17 10:55:33;;;;;;;17.45;14.90;;;;;;;;;;5009891;28;20056;-74
2022/08/17 10:58:19;;;;;;;19.25;16.13;;;;;;;;;;5016713;28;20039;-73
2022/08/17 11:00:52;;;;;;;18.02;16.13;;;;;;;;;;5019778;28;20020;-74
2022/08/17 11:03:19;;;;;;;21.67;16.92;;;;;;;;;;5018145;28;20668;-74
2022/08/17 11:05:52;;;;;;;19.77;17.77;;;;;;;;;;5036088;28;20127;-73
2022/08/17 11:08:37;;;;;;;22.48;20.05;;;;;;;;;;5034465;28;21501;-73
2022/08/17 11:11:22;;;;;;;28.08;23.17;;;;;;;;;;5018980;28;20037;-74
2022/08/17 11:13:47;;;;;;;28.02;24.20;;;;;;;;;;5022226;28;20040;-74
2022/08/17 11:16:27;;;;;;;26.75;22.95;;;;;;;;;;5021649;28;20304;-73
2022/08/17 11:19:09;;;;;;;27.35;23.10;;;;;;;;;;5021810;28;20060;-74
2022/08/17 11:21:38;;;;;;;29.23;23.50;;;;;;;;;;5021795;28;20033;-74
2022/08/17 11:24:06;;;;;;;37.33;23.88;;;;;;;;;;5019791;28;20036;-73
2022/08/17 11:26:32;;;;;;;30.80;23.55;;;;;;;;;;5020414;28;20452;-73
2022/08/17 11:29:00;;;;;;;26.60;22.95;;;;;;;;;;5021403;28;20036;-73
2022/08/17 11:31:37;;;;;;;34.20;26.45;;;;;;;;;;5023327;28;20947;-73
2022/08/17 11:34:05;;;;;;;32.70;25.17;;;;;;;;;;5019811;28;20044;-73
2022/08/17 11:36:33;;;;;;;31.05;25.35;;;;;;;;;;5025226;28;20040;-72
2022/08/17 11:39:03;;;;;;;32.65;26.60;;;;;;;;;;5035632;28;22007;-74
2022/08/17 11:41:47;;;;;;;33.13;27.55;;;;;;;;;;5044792;28;20036;-73
2022/08/17 11:44:14;;;;;;;41.67;30.33;;;;;;;;;;5043605;28;20405;-73
2022/08/17 11:52:35;;;;;;;42.95;33.17;;;;;;;;;;5042273;27;20037;-73
2022/08/17 11:55:00;;;;;;;39.97;33.25;;;;;;;;;;5035968;28;20097;-74
2022/08/17 11:57:26;;;;;;;37.78;31.83;;;;;;;;;;5058237;27;20160;-73
2022/08/17 11:59:57;;;;;;;36.20;32.30;;;;;;;;;;5073693;28;20027;-73
2022/08/17 12:02:29;;;;;;;35.50;30.90;;;;;;;;;;5057272;27;20063;-73
2022/08/17 12:05:13;;;;;;;31.27;27.95;;;;;;;;;;5034299;28;20456;-73
2022/08/17 12:07:50;;;;;;;25.38;22.67;;;;;;;;;;5028236;28;20478;-73
2022/08/17 12:10:22;;;;;;;26.83;24.10;;;;;;;;;;5029612;28;20130;-73
2022/08/17 12:12:49;;;;;;;24.70;22.30;;;;;;;;;;5053098;28;20033;-74
2022/08/17 12:15:16;;;;;;;25.42;22.58;;;;;;;;;;5069259;27;20028;-74
2022/08/17 12:17:49;;;;;;;28.55;24.85;;;;;;;;;;5082315;27;20040;-74
2022/08/17 12:20:26;;;;;;;27.25;24.13;;;;;;;;;;5054290;27;20021;-74
2022/08/17 12:22:59;;;;;;;27.98;25.13;;;;;;;;;;5060608;28;20032;-74
2022/08/17 12:25:31;;;;;;;28.83;25.85;;;;;;;;;;5074173;28;20024;-74
2022/08/17 12:27:57;;;;;;;27.58;24.40;;;;;;;;;;5070838;27;20024;-73
2022/08/17 12:30:22;;;;;;;28.13;25.05;;;;;;;;;;5086357;27;20025;-74
2022/08/17 12:32:48;;;;;;;28.13;24.40;;;;;;;;;;5077268;27;20109;-74
2022/08/17 12:35:28;;;;;;;27.30;24.50;;;;;;;;;;5061691;28;20102;-74
2022/08/17 12:37:56;;;;;;;28.48;24.95;;;;;;;;;;5068838;28;20117;-73
2022/08/17 12:40:23;;;;;;;26.77;24.02;;;;;;;;;;5072497;28;20033;-74
2022/08/17 12:42:57;;;;;;;25.70;23.05;;;;;;;;;;5068197;28;20024;-74
2022/08/17 12:45:24;;;;;;;27.60;24.45;;;;;;;;;;5061016;28;20078;-73
2022/08/17 12:47:58;;;;;;;28.85;24.85;;;;;;;;;;5062457;28;20020;-74
2022/08/17 12:50:24;;;;;;;27.88;24.88;;;;;;;;;;5071052;28;20493;-74
2022/08/17 12:52:49;;;;;;;26.77;24.17;;;;;;;;;;5081204;28;20031;-75
2022/08/17 12:55:21;;;;;;;26.15;23.35;;;;;;;;;;5081111;28;20028;-73
2022/08/17 12:57:48;;;;;;;25.30;22.80;;;;;;;;;;5065678;28;20034;-74
2022/08/17 13:00:16;;;;;;;25.67;23.00;;;;;;;;;;5062859;28;20086;-73
2022/08/17 13:02:49;;;;;;;25.55;22.95;;;;;;;;;;5066628;28;20503;-73
2022/08/17 13:05:34;;;;;;;28.30;25.33;;;;;;;;;;5051106;28;20037;-75
2022/08/17 13:08:00;;;;;;;31.25;28.05;;;;;;;;;;5018624;28;20379;-77
2022/08/17 13:10:28;;;;;;;34.33;30.75;;;;;;;;;;5034548;28;20037;-77
2022/08/17 13:12:54;;;;;;;34.95;31.25;;;;;;;;;;5022677;28;20568;-78
2022/08/17 13:15:20;;;;;;;36.13;30.77;;;;;;;;;;5020604;28;20052;-77
2022/08/17 13:17:55;;;;;;;37.45;33.50;;;;;;;;;;5015613;28;20024;-77
2022/08/17 13:20:20;;;;;;;33.78;30.15;;;;;;;;;;5016561;28;22248;-77
2022/08/17 13:22:51;;;;;;;33.30;29.80;;;;;;;;;;5016787;28;20277;-78
2022/08/17 13:25:16;;;;;;;36.92;30.85;;;;;;;;;;5017275;28;20137;-78
2022/08/17 13:27:42;;;;;;;35.00;31.25;;;;;;;;;;5029842;28;20118;-79
2022/08/17 13:30:10;;;;;;;31.20;27.92;;;;;;;;;;5019018;28;20371;-78
2022/08/17 13:32:45;;;;;;;31.13;27.88;;;;;;;;;;5031512;28;20509;-79
2022/08/17 13:35:25;;;;;;;32.13;28.77;;;;;;;;;;5017165;28;20045;-78
2022/08/17 13:37:56;;;;;;;33.03;29.45;;;;;;;;;;5031714;28;20025;-78
2022/08/17 13:40:22;;;;;;;33.92;30.23;;;;;;;;;;5030182;28;20854;-78
2022/08/17 13:42:48;;;;;;;31.80;28.58;;;;;;;;;;5029812;28;20033;-78
2022/08/17 13:45:26;;;;;;;31.42;28.13;;;;;;;;;;5017183;28;20630;-79
2022/08/17 13:48:10;;;;;;;31.58;28.20;;;;;;;;;;5018926;28;20048;-79
2022/08/17 13:50:37;;;;;;;32.92;29.35;;;;;;;;;;5029198;28;20046;-78
2022/08/17 13:53:14;;;;;;;33.95;30.20;;;;;;;;;;5016278;28;20175;-77
2022/08/17 13:55:45;;;;;;;34.05;29.95;;;;;;;;;;5016992;28;20080;-78
2022/08/17 13:58:11;;;;;;;32.95;29.48;;;;;;;;;;5020839;28;20031;-79
2022/08/17 14:00:38;;;;;;;32.33;28.85;;;;;;;;;;5017141;28;20067;-78
2022/08/17 14:03:04;;;;;;;31.33;28.02;;;;;;;;;;5014321;28;20289;-77
2022/08/17 14:05:30;;;;;;;29.77;26.65;;;;;;;;;;5015405;28;20633;-78
2022/08/17 14:07:57;;;;;;;29.40;26.38;;;;;;;;;;5015102;28;20125;-77
2022/08/17 14:10:22;;;;;;;29.38;26.45;;;;;;;;;;5014458;28;20030;-78
2022/08/17 14:12:49;;;;;;;28.90;25.92;;;;;;;;;;5016135;28;20128;-78
2022/08/17 14:15:19;;;;;;;30.85;27.65;;;;;;;;;;5019386;28;20415;-78
2022/08/17 14:17:45;;;;;;;29.77;26.77;;;;;;;;;;5017343;28;20686;-79
2022/08/17 14:20:11;;;;;;;29.10;26.00;;;;;;;;;;5017890;28;20351;-78
2022/08/17 14:22:38;;;;;;;27.95;25.10;;;;;;;;;;5016179;28;20033;-78
2022/08/17 14:25:03;;;;;;;29.20;26.02;;;;;;;;;;5015973;28;20044;-77
2022/08/17 14:27:32;;;;;;;29.35;26.30;;;;;;;;;;5016825;28;20460;-78
2022/08/17 14:29:57;;;;;;;30.05;27.15;;;;;;;;;;5018653;28;20231;-77
2022/08/17 14:32:33;;;;;;;29.90;26.77;;;;;;;;;;5018853;28;20040;-77
2022/08/17 14:35:02;;;;;;;29.70;26.67;;;;;;;;;;5013881;28;20043;-78
2022/08/17 14:37:28;;;;;;;28.23;25.10;;;;;;;;;;5014885;28;20840;-77
2022/08/17 14:39:55;;;;;;;28.23;25.20;;;;;;;;;;5017240;28;20081;-76
2022/08/17 14:42:23;;;;;;;28.95;25.85;;;;;;;;;;5015842;28;20421;-76
2022/08/17 14:44:49;;;;;;;28.98;26.02;;;;;;;;;;5015280;28;20138;-76
2022/08/17 14:47:15;;;;;;;29.20;26.13;;;;;;;;;;5029979;28;20036;-76
2022/08/17 14:49:41;;;;;;;29.17;26.08;;;;;;;;;;5013600;28;20090;-76
2022/08/17 14:52:07;;;;;;;29.70;26.70;;;;;;;;;;5015177;28;20417;-76
2022/08/17 14:54:33;;;;;;;33.58;28.05;;;;;;;;;;5018303;28;20638;-76
2022/08/17 14:56:59;;;;;;;29.20;26.17;;;;;;;;;;5029936;28;20033;-76
2022/08/17 14:59:24;;;;;;;29.33;26.40;;;;;;;;;;5015767;28;20548;-75
2022/08/17 15:01:49;;;;;;;30.27;27.15;;;;;;;;;;5013585;28;20025;-75